Startpagina
METAR-TAF:

METAR-TAF

Vliegvelden :

Rarotonga, Cookeilanden

breedte: 21-12S, lengte: 159-49W, hoogte: 7 m

Actueel weer

Dit bericht is 1 uur en het 12 minuten geleden gemaakt, om 15:00 UTC
Wind 7 kt uit het zuidzuidoosten
Temperatuur 22°C
Vochtigheid 73%
Druk 1019 hPa
Zicht 10 km of meer
Verspreide wolken op 2000 ft

METAR: NCRG 261500Z 15007KT 9999 SCT020 22/17 Q1019

Tijdstip: 06:12 (16:12 UTC)

Verwachting

Dit bericht is 5 uur en het 12 minuten geleden gemaakt, om 11:00 UTC
Verwachting geldig van 26 om 12 UTC tot 27 om 12 UTC
Wind 8 kt uit het zuidzuidoosten
Zicht 10 km of meer
Weinig wolken op 1800 ft
Verspreide wolken op 10000 ft
Kans 30% :
Tijdelijke
van 26 om 15 UTC tot 26 om 21 UTC
Zicht: 5000 m
Gebroken wolken op 1500 ft
regenbuien

TAF: NCRG 261100Z 2612/2712 15008KT 9999 FEW018 SCT100 PROB30 TEMPO 2615/2621 5000 SHRA BKN015

Waarnemingen en weersverwachtingen van meer dan 4000 vliegvelden (METAR en TAF).

De beschikbare stations zijn de gele en rode punten op de kaart.

Ga met uw muis naar het station om de naam te zien.

Klik dan om waarnemingen en weersverwachtingen te zien.

kaart wijzigen: klik op de groene knoppen met een zwart kruis om in te zoomen, op de groene knop met een streepje om uit te zoomen of op de groene pijlen voor aangrenzende kaarten.


METAR-TAF: